Time;durP1;ratioP1;P1;durP2;ratioP2;P2;SDS_P1;SDS_P2;PMS_P1;PMS_P2;Temp;Humidity;BMP_temperature;BMP_pressure;BME280_temperature;BME280_humidity;BME280_pressure;Samples;Min_cycle;Max_cycle;Signal;HPM_P1;HPM_P2
2021/09/16 00:00:29;;;;;;;54.43;23.53;;;19.40;1.00;;;;;;5035211;28;20156;-78
2021/09/16 00:02:58;;;;;;;47.57;22.80;;;19.50;1.00;;;;;;5017077;28;20419;-78
2021/09/16 00:05:40;;;;;;;51.30;23.83;;;19.40;1.00;;;;;;5023904;28;20406;-78
2021/09/16 00:08:27;;;;;;;55.53;23.50;;;19.50;1.00;;;;;;5016477;28;20903;-78
2021/09/16 00:10:58;;;;;;;45.17;22.33;;;19.50;1.00;;;;;;5032780;28;20471;-77
2021/09/16 00:13:27;;;;;;;47.67;22.70;;;19.40;1.00;;;;;;5036180;28;20458;-77
2021/09/16 00:16:27;;;;;;;47.90;21.20;;;19.40;1.00;;;;;;5035996;28;20978;-77
2021/09/16 00:18:58;;;;;;;50.13;21.80;;;19.40;1.00;;;;;;5026466;28;20407;-78
2021/09/16 00:21:27;;;;;;;46.53;22.03;;;19.40;1.00;;;;;;5021854;28;20405;-78
2021/09/16 00:23:58;;;;;;;44.90;22.43;;;19.40;1.00;;;;;;5036545;28;20394;-77
2021/09/16 00:26:27;;;;;;;41.60;21.43;;;19.40;1.00;;;;;;5033178;28;20413;-78
2021/09/16 00:29:04;;;;;;;41.20;21.70;;;19.40;1.00;;;;;;5035309;28;20749;-77
2021/09/16 00:31:33;;;;;;;55.33;23.90;;;19.30;1.00;;;;;;5022162;28;20414;-77
2021/09/16 00:34:39;;;;;;;49.93;23.13;;;19.30;1.00;;;;;;5016565;28;20446;-77
2021/09/16 00:37:45;;;;;;;44.07;20.73;;;19.30;1.00;;;;;;5015829;28;20426;-79
2021/09/16 00:40:12;;;;;;;46.33;21.43;;;19.30;1.00;;;;;;5020472;28;20429;-78
2021/09/16 00:42:57;;;;;;;50.10;21.90;;;19.30;1.00;;;;;;5033324;28;20473;-78
2021/09/16 00:45:40;;;;;;;46.23;21.63;;;19.30;1.00;;;;;;5032779;28;20426;-77
2021/09/16 00:48:16;;;;;;;58.30;23.40;;;19.30;1.00;;;;;;5033321;28;20425;-77
2021/09/16 00:50:42;;;;;;;49.17;23.27;;;19.30;1.00;;;;;;5016084;28;20431;-77
2021/09/16 00:53:57;;;;;;;44.60;22.27;;;19.30;1.00;;;;;;5015547;28;20533;-77
2021/09/16 00:56:40;;;;;;;45.40;21.40;;;19.20;1.00;;;;;;5018373;28;20426;-77
2021/09/16 00:59:28;;;;;;;45.63;21.73;;;19.20;1.00;;;;;;5034685;28;20436;-77
2021/09/16 01:01:54;;;;;;;48.30;21.03;;;19.20;1.00;;;;;;5022046;28;20473;-78
2021/09/16 01:04:22;;;;;;;57.07;21.87;;;19.20;1.00;;;;;;5016000;28;20766;-77
2021/09/16 01:06:52;;;;;;;47.10;21.70;;;19.20;1.00;;;;;;5034313;28;20266;-78
2021/09/16 01:09:23;;;;;;;45.53;22.70;;;19.20;1.00;;;;;;5029543;28;21041;-77
2021/09/16 01:11:52;;;;;;;45.13;22.60;;;19.10;1.00;;;;;;5014698;28;20488;-77
2021/09/16 01:14:23;;;;;;;48.00;23.30;;;19.10;1.00;;;;;;5014748;28;20837;-77
2021/09/16 01:16:49;;;;;;;43.00;20.43;;;19.10;1.00;;;;;;5014333;28;20768;-77
2021/09/16 01:19:16;;;;;;;54.93;22.93;;;19.10;1.00;;;;;;5015515;28;20423;-77
2021/09/16 01:21:58;;;;;;;41.57;22.23;;;19.00;1.00;;;;;;5025906;28;20955;-77
2021/09/16 01:24:34;;;;;;;46.97;22.30;;;19.10;1.00;;;;;;5032718;28;20410;-77
2021/09/16 01:27:10;;;;;;;49.47;21.60;;;19.00;1.00;;;;;;5015073;28;20486;-77
2021/09/16 01:30:09;;;;;;;48.70;21.80;;;19.00;1.00;;;;;;5028026;28;20478;-77
2021/09/16 01:32:36;;;;;;;47.20;21.57;;;19.10;1.00;;;;;;5032803;28;20458;-78
2021/09/16 01:35:28;;;;;;;54.40;22.43;;;19.00;1.00;;;;;;5035289;28;20398;-77
2021/09/16 01:41:16;;;;;;;56.17;22.97;;;;;;;;;;5027903;28;20483;-78
2021/09/16 01:50:28;;;;;;;44.13;20.63;;;19.00;1.00;;;;;;5021567;28;20529;-78
2021/09/16 01:53:04;;;;;;;48.83;23.53;;;19.00;1.00;;;;;;5015694;28;21019;-77
2021/09/16 01:55:46;;;;;;;63.80;23.80;;;19.00;1.00;;;;;;5031976;28;20408;-78
2021/09/16 02:01:33;;;;;;;52.53;23.00;;;19.00;1.00;;;;;;5014419;28;20376;-77
2021/09/16 02:04:16;;;;;;;48.60;21.60;;;19.00;1.00;;;;;;5014957;28;20424;-77
2021/09/16 02:06:45;;;;;;;54.73;23.40;;;18.90;1.00;;;;;;5032247;28;20975;-77
2021/09/16 02:12:33;;;;;;;46.40;21.93;;;18.90;1.00;;;;;;5014233;28;20473;-77
2021/09/16 02:15:39;;;;;;;37.33;22.00;;;18.90;1.00;;;;;;5022446;28;20497;-77
2021/09/16 02:18:10;;;;;;;41.20;21.83;;;18.90;1.00;;;;;;5015988;28;20198;-77
2021/09/16 02:21:09;;;;;;;48.10;21.60;;;18.90;1.00;;;;;;5033180;28;20915;-77
2021/09/16 02:23:46;;;;;;;47.40;23.30;;;18.90;1.00;;;;;;5024532;28;20511;-77
2021/09/16 02:26:51;;;;;;;52.70;22.53;;;18.80;1.00;;;;;;5033692;28;20489;-77
2021/09/16 02:29:45;;;;;;;50.77;22.30;;;18.80;1.00;;;;;;5031387;28;20417;-77
2021/09/16 02:32:28;;;;;;;46.20;21.80;;;18.80;1.00;;;;;;5017946;28;20419;-78
2021/09/16 02:35:15;;;;;;;45.87;21.20;;;18.80;1.00;;;;;;5018673;28;20869;-77
2021/09/16 02:37:59;;;;;;;50.03;22.90;;;18.80;1.00;;;;;;5032777;28;20497;-77
2021/09/16 02:40:51;;;;;;;48.23;22.57;;;18.80;1.00;;;;;;5026349;28;20444;-78
2021/09/16 02:50:10;;;;;;;47.77;21.60;;;18.80;1.00;;;;;;5025402;28;20408;-77
2021/09/16 02:55:57;;;;;;;57.30;22.40;;;18.90;1.00;;;;;;5027460;28;20746;-77
2021/09/16 02:58:51;;;;;;;46.40;22.27;;;18.80;1.00;;;;;;5020696;28;20422;-77
2021/09/16 03:01:57;;;;;;;44.23;23.40;;;18.80;1.00;;;;;;5032933;28;20228;-77
2021/09/16 03:04:40;;;;;;;49.40;21.27;;;18.80;1.00;;;;;;5022128;28;20445;-77
2021/09/16 03:07:33;;;;;;;49.40;23.13;;;18.80;1.00;;;;;;5013808;28;20397;-77
2021/09/16 03:09:59;;;;;;;56.03;21.67;;;18.70;1.00;;;;;;5014302;28;20391;-77
2021/09/16 03:12:34;;;;;;;42.77;21.07;;;18.70;1.00;;;;;;5013702;28;20469;-78
2021/09/16 03:15:00;;;;;;;60.37;23.20;;;;;;;;;;5014982;28;20182;-78
2021/09/16 03:17:25;;;;;;;48.70;20.63;;;18.70;1.00;;;;;;5033642;28;20460;-77
2021/09/16 03:20:11;;;;;;;52.87;22.67;;;18.70;1.00;;;;;;5015120;28;20411;-77
2021/09/16 03:22:36;;;;;;;48.17;22.00;;;18.70;1.00;;;;;;5027342;28;20175;-77
2021/09/16 03:25:05;;;;;;;41.80;22.00;;;18.70;1.00;;;;;;5031799;28;20433;-77
2021/09/16 03:27:31;;;;;;;51.90;22.23;;;;;;;;;;5018622;28;20538;-77
2021/09/16 03:30:14;;;;;;;51.40;22.30;;;18.70;1.00;;;;;;5033838;28;20406;-77
2021/09/16 03:32:46;;;;;;;45.47;20.00;;;18.70;1.00;;;;;;5031251;28;20465;-77
2021/09/16 03:35:16;;;;;;;43.93;20.80;;;18.70;1.00;;;;;;5032806;28;20403;-77
2021/09/16 03:37:41;;;;;;;46.23;20.47;;;18.70;1.00;;;;;;5032196;28;20479;-78
2021/09/16 03:40:45;;;;;;;49.27;20.17;;;18.70;1.00;;;;;;5027861;28;20428;-78
2021/09/16 03:49:55;;;;;;;56.70;20.93;;;18.60;1.00;;;;;;5024539;28;20484;-76
2021/09/16 03:52:21;;;;;;;44.40;20.87;;;18.70;1.00;;;;;;5036817;28;20457;-76
2021/09/16 03:54:47;;;;;;;52.57;21.80;;;18.60;1.00;;;;;;5037150;28;20159;-77
2021/09/16 03:57:51;;;;;;;46.13;21.43;;;18.60;1.00;;;;;;5025209;28;20413;-76
2021/09/16 04:00:34;;;;;;;42.70;22.40;;;18.60;1.00;;;;;;5033255;28;20205;-75
2021/09/16 04:03:21;;;;;;;39.03;19.77;;;18.50;1.00;;;;;;5017182;28;20402;-75
2021/09/16 04:05:52;;;;;;;48.07;21.47;;;18.50;1.00;;;;;;5017091;28;20480;-76
2021/09/16 04:08:34;;;;;;;55.63;20.97;;;18.50;1.00;;;;;;5016720;28;20401;-76
2021/09/16 04:11:21;;;;;;;30.70;16.70;;;18.50;1.00;;;;;;5030262;28;20421;-76
2021/09/16 04:14:21;;;;;;;35.83;18.60;;;18.50;1.00;;;;;;5016941;28;20453;-75
2021/09/16 04:17:09;;;;;;;35.97;18.40;;;18.40;1.00;;;;;;5020319;28;20427;-75
2021/09/16 04:19:40;;;;;;;35.13;18.67;;;18.30;1.00;;;;;;5035673;28;20893;-77
2021/09/16 04:22:16;;;;;;;35.10;18.13;;;18.30;1.00;;;;;;5035429;28;20430;-76
2021/09/16 04:24:42;;;;;;;40.63;19.20;;;18.20;1.00;;;;;;5036007;28;20394;-76
2021/09/16 04:27:22;;;;;;;31.03;15.83;;;18.20;1.00;;;;;;5035215;28;20424;-75
2021/09/16 04:29:58;;;;;;;32.00;15.10;;;18.10;1.00;;;;;;5035967;28;20167;-76
2021/09/16 04:32:34;;;;;;;27.37;16.50;;;18.10;1.00;;;;;;5035151;28;20428;-76
2021/09/16 04:35:08;;;;;;;26.37;15.50;;;18.10;1.00;;;;;;5036075;28;20399;-77
2021/09/16 04:37:34;;;;;;;32.57;16.00;;;18.00;1.00;;;;;;5034716;28;20439;-76
2021/09/16 04:40:10;;;;;;;33.10;15.73;;;18.00;1.00;;;;;;5032045;28;20388;-76
2021/09/16 04:46:16;;;;;;;44.97;16.10;;;;;;;;;;5015933;28;20448;-76
2021/09/16 04:48:58;;;;;;;33.27;15.77;;;17.90;1.00;;;;;;5022780;28;20973;-76
2021/09/16 04:51:23;;;;;;;32.20;16.03;;;17.90;1.00;;;;;;5015266;28;20381;-78
2021/09/16 04:53:49;;;;;;;30.00;14.97;;;;;;;;;;5023552;28;20540;-78
2021/09/16 04:59:36;;;;;;;47.67;16.07;;;17.90;1.00;;;;;;5016072;28;20412;-79
2021/09/16 05:05:24;;;;;;;26.63;14.37;;;;;;;;;;5015433;28;20174;-78
2021/09/16 05:08:04;;;;;;;27.40;14.23;;;17.80;1.00;;;;;;5015839;28;20394;-79
2021/09/16 05:11:15;;;;;;;31.67;15.30;;;17.80;1.00;;;;;;5031236;28;20493;-78
2021/09/16 05:13:58;;;;;;;29.50;15.63;;;17.80;1.00;;;;;;5031302;28;20460;-78
2021/09/16 05:16:57;;;;;;;29.80;13.10;;;17.80;1.00;;;;;;5024867;28;20939;-77
2021/09/16 05:19:40;;;;;;;36.83;13.60;;;17.80;1.00;;;;;;5018016;28;20924;-77
2021/09/16 05:25:51;;;;;;;23.47;12.93;;;17.70;1.00;;;;;;5031999;28;20552;-78
2021/09/16 05:31:58;;;;;;;23.37;13.70;;;;;;;;;;5034415;28;20797;-78
2021/09/16 05:38:33;;;;;;;23.70;12.80;;;17.70;1.00;;;;;;5034998;28;20445;-77
2021/09/16 05:41:10;;;;;;;34.53;13.40;;;17.60;1.00;;;;;;5030202;28;20431;-79
2021/09/16 05:43:46;;;;;;;29.13;13.80;;;17.60;1.00;;;;;;5032567;28;20916;-78
2021/09/16 05:46:11;;;;;;;30.83;13.23;;;17.60;1.00;;;;;;5013816;28;20395;-77
2021/09/16 05:48:37;;;;;;;25.80;13.50;;;17.60;1.00;;;;;;5016192;28;20417;-77
2021/09/16 05:51:03;;;;;;;28.60;13.40;;;17.60;1.00;;;;;;5014478;28;20178;-77
2021/09/16 05:53:28;;;;;;;32.77;14.20;;;17.60;1.00;;;;;;5013608;28;20217;-77
2021/09/16 05:55:54;;;;;;;27.50;13.53;;;17.60;1.00;;;;;;5013996;28;20241;-77
2021/09/16 05:58:20;;;;;;;35.20;14.83;;;17.60;1.00;;;;;;5013862;28;20533;-77
2021/09/16 06:00:45;;;;;;;30.57;14.40;;;17.70;1.00;;;;;;5028846;28;20170;-77
2021/09/16 06:03:11;;;;;;;29.80;14.13;;;17.70;1.00;;;;;;5028829;28;20179;-77
2021/09/16 06:05:37;;;;;;;26.60;12.30;;;17.70;1.00;;;;;;5023516;28;20171;-77
2021/09/16 06:08:02;;;;;;;30.50;13.30;;;17.60;1.00;;;;;;5033722;28;20171;-77
2021/09/16 06:10:28;;;;;;;27.57;13.83;;;17.70;1.00;;;;;;5016881;28;20184;-77
2021/09/16 06:12:53;;;;;;;24.77;14.23;;;17.70;1.00;;;;;;5028654;28;20221;-77
2021/09/16 06:15:19;;;;;;;33.53;15.00;;;17.80;1.00;;;;;;5033430;28;20254;-77
2021/09/16 06:17:45;;;;;;;27.50;13.70;;;17.70;1.00;;;;;;5033311;28;20209;-77
2021/09/16 06:20:11;;;;;;;24.87;12.70;;;17.80;1.00;;;;;;5033299;28;20155;-77
2021/09/16 06:22:37;;;;;;;31.50;13.30;;;17.80;1.00;;;;;;5033511;28;20194;-77
2021/09/16 06:25:03;;;;;;;26.00;13.40;;;17.90;1.00;;;;;;5033352;28;20437;-77
2021/09/16 06:27:29;;;;;;;28.90;14.53;;;17.90;1.00;;;;;;5033039;28;20186;-77
2021/09/16 06:29:55;;;;;;;26.90;12.67;;;17.90;1.00;;;;;;5033158;28;20786;-77
2021/09/16 06:32:20;;;;;;;24.73;12.90;;;18.00;1.00;;;;;;5032676;28;20551;-77
2021/09/16 06:34:46;;;;;;;21.63;12.40;;;18.00;1.00;;;;;;5032986;28;20163;-77
2021/09/16 06:37:11;;;;;;;19.47;12.40;;;18.00;1.00;;;;;;5033053;28;20297;-77
2021/09/16 06:39:37;;;;;;;20.47;12.20;;;18.10;1.00;;;;;;5030035;28;20167;-77
2021/09/16 06:42:03;;;;;;;19.97;12.30;;;18.10;1.00;;;;;;5017470;28;20206;-77
2021/09/16 06:44:28;;;;;;;20.23;12.03;;;18.20;1.00;;;;;;5026826;28;20190;-78
2021/09/16 06:46:54;;;;;;;23.03;11.97;;;18.20;1.00;;;;;;5033105;28;20159;-78
2021/09/16 06:49:20;;;;;;;20.83;11.60;;;18.30;1.00;;;;;;5032891;28;20677;-78
2021/09/16 06:51:45;;;;;;;23.00;11.60;;;18.40;1.00;;;;;;5033117;28;20210;-77
2021/09/16 06:54:11;;;;;;;18.10;11.17;;;18.40;1.00;;;;;;5032845;28;20214;-77
2021/09/16 06:56:36;;;;;;;18.13;10.33;;;18.50;1.00;;;;;;5032828;28;20160;-77
2021/09/16 06:59:02;;;;;;;22.20;10.47;;;18.50;1.00;;;;;;5032906;28;20179;-77
2021/09/16 07:01:28;;;;;;;16.10;9.30;;;18.60;1.00;;;;;;5032758;28;20164;-77
2021/09/16 07:03:54;;;;;;;17.07;9.33;;;18.60;1.00;;;;;;5032820;28;20160;-78
2021/09/16 07:06:22;;;;;;;19.27;9.23;;;18.60;1.00;;;;;;5032697;28;20538;-77
2021/09/16 07:08:49;;;;;;;13.13;9.00;;;18.60;1.00;;;;;;5033039;28;20409;-77
2021/09/16 07:11:16;;;;;;;14.40;9.40;;;18.60;1.00;;;;;;5032778;28;20453;-78
2021/09/16 07:13:41;;;;;;;12.73;9.40;;;18.50;1.00;;;;;;5032721;28;20536;-78
2021/09/16 07:16:07;;;;;;;14.13;8.90;;;18.50;1.00;;;;;;5035470;28;20445;-78
2021/09/16 07:18:34;;;;;;;14.20;9.63;;;;;;;;;;5036455;28;20255;-78
2021/09/16 07:21:04;;;;;;;14.57;8.80;;;18.30;1.00;;;;;;5036507;28;20206;-78
2021/09/16 07:23:29;;;;;;;14.30;9.10;;;18.20;1.00;;;;;;5036983;28;20532;-78
2021/09/16 07:25:55;;;;;;;20.63;9.10;;;18.10;1.00;;;;;;5036651;28;20390;-78
2021/09/16 07:28:21;;;;;;;16.80;10.37;;;18.10;1.00;;;;;;5036470;28;20162;-77
2021/09/16 07:30:46;;;;;;;15.07;9.40;;;18.10;1.00;;;;;;5036585;28;20253;-77
2021/09/16 07:33:12;;;;;;;22.87;9.67;;;18.10;1.00;;;;;;5034825;28;20290;-77
2021/09/16 07:35:38;;;;;;;18.10;10.23;;;18.10;1.00;;;;;;5036358;28;20170;-77
2021/09/16 07:38:05;;;;;;;14.17;8.60;;;18.00;1.00;;;;;;5036362;28;20511;-77
2021/09/16 07:40:31;;;;;;;14.87;9.43;;;18.10;1.00;;;;;;5034120;28;20174;-77
2021/09/16 07:42:56;;;;;;;19.67;8.77;;;18.00;1.00;;;;;;5016225;28;20897;-77
2021/09/16 07:45:22;;;;;;;13.03;8.00;;;17.90;1.00;;;;;;5016305;28;20193;-77
2021/09/16 07:47:52;;;;;;;21.50;8.20;;;17.90;1.00;;;;;;5035358;28;20183;-77
2021/09/16 07:50:17;;;;;;;22.23;8.70;;;18.00;1.00;;;;;;5017137;28;20187;-77
2021/09/16 07:52:43;;;;;;;18.53;8.57;;;18.00;1.00;;;;;;5016529;28;20474;-77
2021/09/16 07:55:09;;;;;;;15.07;8.03;;;18.10;1.00;;;;;;5016167;28;20525;-77
2021/09/16 07:57:34;;;;;;;21.73;7.67;;;18.00;1.00;;;;;;5016032;28;20160;-77
2021/09/16 08:00:00;;;;;;;12.83;6.30;;;18.00;1.00;;;;;;5015954;28;20442;-77
2021/09/16 08:02:26;;;;;;;9.57;7.30;;;18.10;1.00;;;;;;5016243;28;20210;-77
2021/09/16 08:04:51;;;;;;;9.40;5.90;;;18.20;1.00;;;;;;5019683;28;20172;-77
2021/09/16 08:07:17;;;;;;;6.50;5.33;;;18.30;1.00;;;;;;5036199;28;20164;-77
2021/09/16 08:09:42;;;;;;;8.73;5.33;;;18.50;1.00;;;;;;5035579;28;20524;-77
2021/09/16 08:12:08;;;;;;;14.30;6.37;;;18.60;1.00;;;;;;5035628;28;20298;-77
2021/09/16 08:14:34;;;;;;;12.93;5.93;;;18.70;1.00;;;;;;5035615;28;20191;-77
2021/09/16 08:17:00;;;;;;;10.57;6.00;;;19.00;1.00;;;;;;5035549;28;20600;-77
2021/09/16 08:19:25;;;;;;;9.07;5.57;;;19.10;1.00;;;;;;5035523;28;20178;-77
2021/09/16 08:21:51;;;;;;;6.77;4.90;;;19.50;1.00;;;;;;5035664;28;20171;-77
2021/09/16 08:24:17;;;;;;;5.90;4.50;;;19.50;1.00;;;;;;5035818;28;20546;-77
2021/09/16 08:26:42;;;;;;;6.80;5.10;;;19.60;1.00;;;;;;5034065;28;20210;-77
2021/09/16 08:29:08;;;;;;;11.20;4.70;;;19.80;1.00;;;;;;5034102;28;20306;-77
2021/09/16 08:31:34;;;;;;;11.57;5.70;;;19.90;1.00;;;;;;5035012;28;20180;-77
2021/09/16 08:34:00;;;;;;;5.07;4.57;;;19.90;1.00;;;;;;5035136;28;20196;-77
2021/09/16 08:36:26;;;;;;;11.63;5.27;;;19.90;1.00;;;;;;5035079;28;20193;-77
2021/09/16 08:38:52;;;;;;;6.27;4.60;;;19.80;1.00;;;;;;5035175;28;20403;-77
2021/09/16 08:41:18;;;;;;;5.80;4.53;;;19.80;1.00;;;;;;5018853;28;20459;-77
2021/09/16 08:43:44;;;;;;;5.73;5.00;;;19.70;1.00;;;;;;5032534;28;20827;-77
2021/09/16 08:46:10;;;;;;;4.50;3.93;;;19.50;1.00;;;;;;5035030;28;20177;-77
2021/09/16 08:48:36;;;;;;;7.90;4.03;;;;;;;;;;5030005;28;20427;-77
2021/09/16 08:51:02;;;;;;;8.30;5.23;;;;;;;;;;5015083;28;20211;-77
2021/09/16 08:53:31;;;;;;;4.90;3.93;;;19.50;1.00;;;;;;5015441;28;20474;-77
2021/09/16 08:55:59;;;;;;;7.77;4.37;;;19.30;1.00;;;;;;5014832;28;20438;-77
2021/09/16 08:58:28;;;;;;;8.03;4.23;;;19.30;1.00;;;;;;5014972;28;20858;-77
2021/09/16 09:00:55;;;;;;;8.60;3.50;;;19.20;1.00;;;;;;5013764;28;20411;-77
2021/09/16 09:03:21;;;;;;;10.23;4.30;;;19.20;1.00;;;;;;5014974;28;20383;-77
2021/09/16 09:05:46;;;;;;;5.47;3.97;;;19.20;1.00;;;;;;5014849;28;20487;-77
2021/09/16 09:08:13;;;;;;;4.70;3.83;;;19.20;1.00;;;;;;5015027;28;20908;-77
2021/09/16 09:10:45;;;;;;;5.80;4.10;;;19.30;1.00;;;;;;5014705;28;20163;-77
2021/09/16 09:13:18;;;;;;;6.43;3.03;;;19.40;1.00;;;;;;5014747;28;20448;-77
2021/09/16 09:15:46;;;;;;;6.93;3.63;;;19.60;1.00;;;;;;5014712;28;20408;-77
2021/09/16 09:18:16;;;;;;;9.10;3.40;;;19.60;1.00;;;;;;5014854;28;20733;-77
2021/09/16 09:21:13;;;;;;;5.73;3.40;;;19.60;1.00;;;;;;5014590;28;20419;-77
2021/09/16 09:23:45;;;;;;;5.30;2.87;;;20.00;1.00;;;;;;5012561;28;20511;-77
2021/09/16 09:26:30;;;;;;;3.27;2.93;;;20.00;1.00;;;;;;5012267;28;20539;-77
2021/09/16 09:28:57;;;;;;;3.37;2.53;;;20.10;1.00;;;;;;5012267;28;20424;-77
2021/09/16 09:31:25;;;;;;;3.60;2.40;;;20.00;1.00;;;;;;5012238;28;20424;-77
2021/09/16 09:33:52;;;;;;;3.47;2.77;;;;;;;;;;5011797;28;20979;-77
2021/09/16 09:36:22;;;;;;;3.10;2.80;;;20.70;1.00;;;;;;5012158;28;20394;-77
2021/09/16 09:39:01;;;;;;;3.77;2.93;;;20.70;1.00;;;;;;5011663;28;20929;-77
2021/09/16 09:41:31;;;;;;;4.03;2.70;;;20.80;1.00;;;;;;5025935;28;20441;-77
2021/09/16 09:44:10;;;;;;;3.37;2.30;;;20.90;1.00;;;;;;5031555;28;20421;-77
2021/09/16 09:46:51;;;;;;;3.70;2.73;;;21.10;1.00;;;;;;5031427;28;20428;-77
2021/09/16 09:49:25;;;;;;;2.60;1.80;;;21.20;1.00;;;;;;5031631;28;20455;-78
2021/09/16 09:51:54;;;;;;;2.40;1.70;;;21.40;1.00;;;;;;5031485;28;20440;-78
2021/09/16 09:54:32;;;;;;;4.87;2.33;;;21.40;1.00;;;;;;5031684;28;20500;-77
2021/09/16 09:57:18;;;;;;;2.80;2.17;;;21.50;1.00;;;;;;5031568;28;20405;-77
2021/09/16 10:00:09;;;;;;;6.73;2.47;;;21.60;1.00;;;;;;5019638;28;20437;-77
2021/09/16 10:02:50;;;;;;;6.00;2.50;;;21.60;1.00;;;;;;5033645;28;20480;-78
2021/09/16 10:05:29;;;;;;;2.60;1.10;;;21.80;1.00;;;;;;5033496;28;20498;-77
2021/09/16 10:08:19;;;;;;;2.80;1.23;;;21.80;1.00;;;;;;5033411;28;20391;-77
2021/09/16 10:10:53;;;;;;;3.03;1.40;;;21.70;1.00;;;;;;5033192;28;20453;-77
2021/09/16 10:13:19;;;;;;;1.63;1.20;;;21.70;1.00;;;;;;5033393;28;20434;-77
2021/09/16 10:15:46;;;;;;;3.17;1.40;;;21.90;1.00;;;;;;5033485;28;20403;-77
2021/09/16 10:18:12;;;;;;;2.10;1.07;;;;;;;;;;5033244;28;20505;-77
2021/09/16 10:20:38;;;;;;;2.80;1.20;;;;;;;;;;5033402;28;20486;-77
2021/09/16 10:23:07;;;;;;;2.27;1.10;;;21.90;1.00;;;;;;5033326;28;20448;-77
2021/09/16 10:25:33;;;;;;;3.73;1.47;;;21.80;1.00;;;;;;5033591;28;20450;-77
2021/09/16 10:28:07;;;;;;;4.47;1.30;;;21.90;1.00;;;;;;5033170;28;20413;-77
2021/09/16 10:30:43;;;;;;;1.53;1.43;;;21.90;1.00;;;;;;5033237;28;20226;-77
2021/09/16 10:33:15;;;;;;;3.80;1.23;;;21.90;1.00;;;;;;5032826;28;20443;-77
2021/09/16 10:35:46;;;;;;;6.37;2.10;;;21.90;1.00;;;;;;5033044;28;20397;-77
2021/09/16 10:38:35;;;;;;;1.77;1.13;;;22.10;1.00;;;;;;5032711;28;20415;-77
2021/09/16 10:41:12;;;;;;;3.27;1.50;;;22.10;1.00;;;;;;5024977;28;20439;-76
2021/09/16 10:43:39;;;;;;;2.13;1.90;;;21.90;1.00;;;;;;5024396;28;20425;-76
2021/09/16 10:46:38;;;;;;;5.17;1.83;;;22.00;1.00;;;;;;5032839;28;20426;-76
2021/09/16 10:49:21;;;;;;;4.70;2.30;;;22.10;1.00;;;;;;5029614;28;20420;-76
2021/09/16 10:51:53;;;;;;;5.10;1.90;;;22.10;1.00;;;;;;5013075;28;20420;-76
2021/09/16 10:54:24;;;;;;;4.20;1.90;;;22.00;1.00;;;;;;5013407;28;20483;-76
2021/09/16 10:57:13;;;;;;;4.10;2.73;;;22.00;1.00;;;;;;5013082;28;20379;-76
2021/09/16 10:59:47;;;;;;;8.20;2.30;;;21.90;1.00;;;;;;5013085;28;20405;-76
2021/09/16 11:02:17;;;;;;;4.03;2.87;;;21.70;1.00;;;;;;5012890;28;20935;-76
2021/09/16 11:04:55;;;;;;;2.70;2.50;;;21.70;1.00;;;;;;5012993;28;20407;-76
2021/09/16 11:07:32;;;;;;;2.40;2.27;;;21.70;1.00;;;;;;5013082;28;20404;-76
2021/09/16 11:10:13;;;;;;;5.07;2.40;;;21.60;1.00;;;;;;5013440;28;20404;-77
2021/09/16 11:12:45;;;;;;;2.70;2.47;;;21.60;1.00;;;;;;5012929;28;20458;-77
2021/09/16 11:15:13;;;;;;;7.40;2.77;;;21.50;1.00;;;;;;5012946;28;20409;-77
2021/09/16 11:17:41;;;;;;;3.23;2.33;;;21.60;1.00;;;;;;5012889;28;20860;-77
2021/09/16 11:20:09;;;;;;;2.73;2.30;;;21.80;1.00;;;;;;5011659;28;20412;-77
2021/09/16 11:22:35;;;;;;;6.23;2.30;;;21.80;1.00;;;;;;5012851;28;20419;-77
2021/09/16 11:25:01;;;;;;;3.90;2.30;;;21.90;1.00;;;;;;5013200;28;20411;-77
2021/09/16 11:27:30;;;;;;;4.23;2.60;;;21.70;1.00;;;;;;5012784;28;20587;-77
2021/09/16 11:29:57;;;;;;;2.33;2.23;;;21.70;1.00;;;;;;5011681;28;20334;-77
2021/09/16 11:32:31;;;;;;;2.70;2.20;;;21.70;1.00;;;;;;5012499;28;20491;-77
2021/09/16 11:34:57;;;;;;;4.17;2.70;;;21.60;1.00;;;;;;5012710;28;20483;-77
2021/09/16 11:37:30;;;;;;;3.53;2.07;;;21.50;1.00;;;;;;5012456;28;20860;-77
2021/09/16 11:39:58;;;;;;;2.57;2.37;;;21.30;1.00;;;;;;5012832;28;20400;-77
2021/09/16 11:42:24;;;;;;;3.47;2.37;;;21.20;1.00;;;;;;5030067;28;20403;-77
2021/09/16 11:45:11;;;;;;;2.90;2.53;;;21.30;1.00;;;;;;5032495;28;20495;-77
2021/09/16 11:47:45;;;;;;;11.53;2.97;;;21.20;1.00;;;;;;5032324;28;20410;-77
2021/09/16 11:50:25;;;;;;;3.83;2.83;;;21.10;1.00;;;;;;5016444;28;20417;-77
2021/09/16 11:53:02;;;;;;;2.47;2.20;;;21.20;1.00;;;;;;5012484;28;20577;-77
2021/09/16 11:55:30;;;;;;;4.57;2.50;;;21.20;1.00;;;;;;5013102;28;20400;-77
2021/09/16 11:58:21;;;;;;;3.10;2.10;;;21.20;1.00;;;;;;5012634;28;20408;-78
2021/09/16 12:00:54;;;;;;;2.43;2.10;;;21.20;1.00;;;;;;5013141;28;20445;-78
2021/09/16 12:03:23;;;;;;;3.03;2.10;;;21.10;1.00;;;;;;5016051;28;20485;-78
2021/09/16 12:05:53;;;;;;;6.70;2.07;;;21.00;1.00;;;;;;5015921;28;20488;-78
2021/09/16 12:08:29;;;;;;;5.07;2.83;;;20.90;1.00;;;;;;5015976;28;20395;-78
2021/09/16 12:11:05;;;;;;;3.43;2.10;;;20.70;1.00;;;;;;5016375;28;20402;-77
2021/09/16 12:13:35;;;;;;;3.43;2.30;;;20.80;1.00;;;;;;5015969;28;20504;-77
2021/09/16 12:16:21;;;;;;;4.60;2.43;;;20.80;1.00;;;;;;5015904;28;20437;-78
2021/09/16 12:19:04;;;;;;;4.10;2.40;;;21.00;1.00;;;;;;5015623;28;20486;-78
2021/09/16 12:21:36;;;;;;;7.13;2.67;;;21.00;1.00;;;;;;5014452;28;20413;-78
2021/09/16 12:24:14;;;;;;;8.17;2.47;;;21.10;1.00;;;;;;5015702;28;20401;-78
2021/09/16 12:26:51;;;;;;;5.50;2.73;;;21.20;1.00;;;;;;5015993;28;20501;-77
2021/09/16 12:29:23;;;;;;;3.80;2.60;;;21.40;1.00;;;;;;5015645;28;20399;-78
2021/09/16 12:31:57;;;;;;;3.80;2.70;;;21.50;1.00;;;;;;5015199;28;20471;-78
2021/09/16 12:34:27;;;;;;;5.10;2.07;;;21.70;1.00;;;;;;5014285;28;20493;-77
2021/09/16 12:37:03;;;;;;;2.33;1.93;;;21.80;1.00;;;;;;5015450;28;20438;-77
2021/09/16 12:39:40;;;;;;;9.33;2.57;;;21.90;1.00;;;;;;5015681;28;20436;-76
2021/09/16 12:42:09;;;;;;;4.40;2.03;;;22.00;1.00;;;;;;5015616;28;20457;-77
2021/09/16 12:44:37;;;;;;;4.03;2.10;;;22.10;1.00;;;;;;5034959;28;20412;-77
2021/09/16 12:47:09;;;;;;;2.60;2.00;;;22.20;1.00;;;;;;5034733;28;20961;-77
2021/09/16 12:49:48;;;;;;;2.83;1.77;;;22.10;1.00;;;;;;5024542;28;20870;-77
2021/09/16 12:52:35;;;;;;;5.00;1.83;;;22.00;1.00;;;;;;5015126;28;20430;-77
2021/09/16 12:55:11;;;;;;;2.97;1.83;;;22.10;1.00;;;;;;5015534;28;20423;-77
2021/09/16 12:57:39;;;;;;;1.63;1.53;;;22.30;1.00;;;;;;5015059;28;20392;-77
2021/09/16 13:00:07;;;;;;;6.03;1.93;;;22.40;1.00;;;;;;5015004;28;20446;-78
2021/09/16 13:02:49;;;;;;;2.10;1.90;;;22.50;1.00;;;;;;5014978;28;20448;-78
2021/09/16 13:05:21;;;;;;;2.30;1.70;;;22.90;1.00;;;;;;5014926;28;20398;-78
2021/09/16 13:08:10;;;;;;;1.57;1.47;;;22.90;1.00;;;;;;5014777;28;20391;-78
2021/09/16 13:10:38;;;;;;;1.40;1.30;;;23.20;1.00;;;;;;5013868;28;20426;-76
2021/09/16 13:13:06;;;;;;;1.47;1.37;;;23.30;1.00;;;;;;5014043;28;20441;-76
2021/09/16 13:15:36;;;;;;;1.43;1.33;;;23.40;1.00;;;;;;5013493;28;20418;-76
2021/09/16 13:18:06;;;;;;;3.87;1.53;;;23.30;1.00;;;;;;5014584;28;20444;-76
2021/09/16 13:20:33;;;;;;;4.83;1.57;;;23.20;1.00;;;;;;5014635;28;20403;-76
2021/09/16 13:22:59;;;;;;;1.60;1.50;;;23.00;1.00;;;;;;5014461;28;20413;-77
2021/09/16 13:25:26;;;;;;;2.03;1.60;;;23.00;1.00;;;;;;5014857;28;20730;-76
2021/09/16 13:27:53;;;;;;;1.27;1.03;;;23.00;1.00;;;;;;5014477;28;20903;-76
2021/09/16 13:30:19;;;;;;;1.60;1.33;;;22.70;1.00;;;;;;5014387;28;20428;-76
2021/09/16 13:32:45;;;;;;;1.73;1.30;;;22.70;1.00;;;;;;5014023;28;20564;-76
2021/09/16 13:35:13;;;;;;;1.33;1.33;;;22.80;1.00;;;;;;5014344;28;20392;-76
2021/09/16 13:37:39;;;;;;;2.70;1.50;;;22.90;1.00;;;;;;5013956;28;20787;-76
2021/09/16 13:40:06;;;;;;;5.57;1.30;;;22.90;1.00;;;;;;5014352;28;20425;-77
2021/09/16 13:42:32;;;;;;;1.33;1.23;;;23.00;1.00;;;;;;5029205;28;20419;-77
2021/09/16 13:44:58;;;;;;;1.53;1.43;;;23.10;1.00;;;;;;5020813;28;20756;-78
2021/09/16 13:47:24;;;;;;;1.30;1.20;;;;;;;;;;5033677;28;20290;-78
2021/09/16 13:49:50;;;;;;;1.47;1.27;;;;;;;;;;5022252;28;20176;-77
2021/09/16 13:52:16;;;;;;;1.73;1.20;;;23.40;1.00;;;;;;5013980;28;20840;-77
2021/09/16 13:54:42;;;;;;;1.20;1.13;;;23.30;1.00;;;;;;5013967;28;20451;-77
2021/09/16 13:57:08;;;;;;;1.20;1.20;;;23.40;1.00;;;;;;5014352;28;20404;-78
2021/09/16 13:59:33;;;;;;;2.30;1.40;;;23.30;1.00;;;;;;5013959;28;20240;-78
2021/09/16 14:01:59;;;;;;;2.03;1.20;;;23.20;1.00;;;;;;5013956;28;20605;-78
2021/09/16 14:04:25;;;;;;;8.47;1.60;;;23.00;1.00;;;;;;5013817;28;20622;-78
2021/09/16 14:06:58;;;;;;;4.30;1.40;;;23.00;1.00;;;;;;5027108;28;20177;-78
2021/09/16 14:09:57;;;;;;;2.07;1.27;;;22.70;1.00;;;;;;5032894;28;20182;-79
2021/09/16 14:16:21;;;;;;;1.60;1.50;;;22.70;1.00;;;;;;5033288;28;20480;-79
2021/09/16 14:18:52;;;;;;;1.57;1.20;;;22.60;1.00;;;;;;5030968;28;20429;-78